This is the latest recevied weather packets stored in our database for station/object KE5OYL. If no packets are shown the sender has not sent any weather packets the latest 10 day(s).
| Time | Temp. | Humidity | Pressure | Rain* | Wind** | Luminosity | Snow |
|---|---|---|---|---|---|---|---|
| 1777766645 | 25° C | 31% | 1019.3 hPa | 0 mm | - | 72 W/m² | - |
| 1777766343 | 25° C | 31% | 1019.2 hPa | 0 mm | - | 84 W/m² | - |
| 1777766039 | 25° C | 31% | 1019.3 hPa | 0 mm | - | 96 W/m² | - |
| 1777765737 | 24.44° C | 31% | 1019.3 hPa | 0 mm | - | 103 W/m² | - |
| 1777765433 | 24.44° C | 31% | 1019.2 hPa | 0 mm | - | 121 W/m² | - |
| 1777765130 | 25° C | 30% | 1019.5 hPa | 0 mm | - | 133 W/m² | - |
| 1777764826 | 23.89° C | 31% | 1019.4 hPa | 0 mm | - | 145 W/m² | - |
| 1777764523 | 25° C | 30% | 1019.3 hPa | 0 mm | - | 71 W/m² | - |
| 1777764219 | 25° C | 30% | 1019.2 hPa | 0 mm | - | 61 W/m² | - |
| 1777763916 | 25° C | 30% | 1019.6 hPa | 0 mm | - | 189 W/m² | - |
| 1777763614 | 25° C | 30% | 1019.4 hPa | 0 mm | - | 206 W/m² | - |
| 1777763312 | 25° C | 29% | 1019.4 hPa | 0 mm | - | 221 W/m² | - |
| 1777763010 | 25.56° C | 29% | 1019.5 hPa | 0 mm | - | 240 W/m² | - |
| 1777762706 | 25° C | 29% | 1019.6 hPa | 0 mm | - | 256 W/m² | - |
| 1777762403 | 24.44° C | 28% | 1019.4 hPa | 0 mm | - | 273 W/m² | - |
| 1777762100 | 25.56° C | 28% | 1019.5 hPa | 0 mm | - | 289 W/m² | - |
| 1777761796 | 25° C | 28% | 1019.4 hPa | 0 mm | - | 308 W/m² | - |
| 1777761494 | 25° C | 29% | 1019.5 hPa | 0 mm | - | 325 W/m² | - |
| 1777761192 | 25° C | 28% | 1019.5 hPa | 0 mm | - | 344 W/m² | - |
| 1777760889 | 25° C | 29% | 1019.5 hPa | 0 mm | - | 362 W/m² | - |
| 1777760586 | 25.56° C | 30% | 1019.5 hPa | 0 mm | - | 379 W/m² | - |
| 1777760281 | 25° C | 29% | 1019.4 hPa | 0 mm | - | 394 W/m² | - |
| 1777759972 | 24.44° C | 30% | 1019.6 hPa | 0 mm | - | 414 W/m² | - |
| 1777759669 | 25° C | 30% | 1019.6 hPa | 0 mm | - | 428 W/m² | - |
| 1777759365 | 25.56° C | 28% | 1019.5 hPa | 0 mm | - | 447 W/m² | - |
* Rain latest hour (hover to see other rain measurements)
** Current wind speed in m/s (hover to see current wind gust speed)